createdAt,value
2019-05-13T00:02:04.582Z,56.70
2019-05-13T00:04:33.720Z,56.60
2019-05-13T00:07:01.414Z,56.60
2019-05-13T00:09:28.882Z,56.60
2019-05-13T00:11:56.232Z,56.50
2019-05-13T00:14:23.940Z,56.40
2019-05-13T00:16:53.467Z,56.50
2019-05-13T00:19:20.652Z,56.50
2019-05-13T00:21:48.078Z,56.60
2019-05-13T00:24:15.366Z,56.70
2019-05-13T00:26:44.473Z,56.70
2019-05-13T00:29:14.115Z,56.80
2019-05-13T00:31:43.712Z,56.80
2019-05-13T00:34:10.613Z,56.80
2019-05-13T00:36:38.109Z,56.90
2019-05-13T00:39:07.188Z,56.90
2019-05-13T00:41:34.541Z,57.00
2019-05-13T00:44:03.806Z,56.90
2019-05-13T00:46:33.839Z,57.00
2019-05-13T00:49:00.713Z,57.00
2019-05-13T00:51:28.081Z,57.00
2019-05-13T00:53:55.473Z,57.00
2019-05-13T00:56:23.770Z,57.00
2019-05-13T00:58:51.274Z,57.00
2019-05-13T01:01:18.618Z,56.90
2019-05-13T01:03:46.115Z,57.00
2019-05-13T01:06:13.542Z,57.00
2019-05-13T01:08:40.876Z,57.00
2019-05-13T01:11:08.280Z,57.00
2019-05-13T01:13:35.735Z,57.00
2019-05-13T01:16:03.691Z,57.10
2019-05-13T01:18:31.302Z,57.10
2019-05-13T01:20:58.679Z,57.10
2019-05-13T01:23:26.133Z,57.20
2019-05-13T01:25:54.436Z,57.20
2019-05-13T01:28:23.901Z,57.20
2019-05-13T01:30:53.795Z,57.30
2019-05-13T01:33:20.622Z,57.30
2019-05-13T01:35:47.996Z,57.30
2019-05-13T01:38:15.330Z,57.30
2019-05-13T01:40:43.966Z,57.30
2019-05-13T01:43:14.121Z,57.30
2019-05-13T01:45:40.745Z,57.30
2019-05-13T01:48:08.304Z,57.30
2019-05-13T01:50:35.872Z,57.40
2019-05-13T01:53:04.311Z,57.40
2019-05-13T01:55:33.948Z,57.40
2019-05-13T01:58:03.894Z,57.50
2019-05-13T02:00:30.729Z,57.50
2019-05-13T02:02:58.160Z,57.50
2019-05-13T02:05:25.540Z,57.50
2019-05-13T02:07:57.801Z,57.50
2019-05-13T02:10:44.333Z,57.60
2019-05-13T02:13:10.832Z,57.50
2019-05-13T02:15:38.167Z,57.50
2019-05-13T02:18:05.499Z,57.50
2019-05-13T02:20:33.523Z,57.50
2019-05-13T02:23:00.977Z,57.50
2019-05-13T02:25:28.311Z,57.60
2019-05-13T02:27:55.592Z,57.60
2019-05-13T02:30:26.578Z,57.60
2019-05-13T02:32:53.134Z,57.60
2019-05-13T02:35:23.113Z,57.60
2019-05-13T02:37:52.566Z,57.50
2019-05-13T02:40:22.667Z,57.60
2019-05-13T02:42:52.157Z,57.60
2019-05-13T02:45:18.644Z,57.60
2019-05-13T02:47:46.180Z,57.60
2019-05-13T02:50:14.084Z,57.70
2019-05-13T02:52:44.404Z,57.70
2019-05-13T02:55:12.344Z,57.70
2019-05-13T02:57:43.279Z,57.70
2019-05-13T03:00:12.731Z,57.10
2019-05-13T03:02:39.012Z,57.60
2019-05-13T03:05:07.517Z,57.50
2019-05-13T03:07:34.851Z,57.70
2019-05-13T03:10:04.192Z,57.60
2019-05-13T03:12:32.367Z,57.70
2019-05-13T03:15:02.672Z,57.60
2019-05-13T03:17:43.292Z,57.50
2019-05-13T03:20:15.772Z,57.40
2019-05-13T03:22:43.099Z,57.50
2019-05-13T03:25:12.877Z,57.40
2019-05-13T03:27:38.730Z,57.40
2019-05-13T03:30:06.171Z,57.40
2019-05-13T03:32:43.184Z,57.40
2019-05-13T03:35:07.205Z,57.40
2019-05-13T03:37:34.890Z,57.40
2019-05-13T03:40:03.297Z,57.40
2019-05-13T03:42:33.715Z,57.40
2019-05-13T03:45:03.865Z,57.40
2019-05-13T03:47:33.578Z,57.40
2019-05-13T03:50:03.553Z,57.30
2019-05-13T03:52:33.529Z,57.30
2019-05-13T03:55:02.881Z,57.30
2019-05-13T03:57:29.178Z,57.40
2019-05-13T03:59:56.550Z,57.40
2019-05-13T04:02:23.996Z,57.50
2019-05-13T04:04:53.108Z,57.40
2019-05-13T04:07:23.816Z,57.50
2019-05-13T04:09:52.520Z,57.30
2019-05-13T04:12:22.572Z,57.30
2019-05-13T04:14:48.739Z,57.30
2019-05-13T04:17:16.197Z,57.30
2019-05-13T04:19:43.638Z,57.30
2019-05-13T04:22:12.874Z,57.30
2019-05-13T04:24:42.711Z,57.20
2019-05-13T04:27:12.894Z,57.10
2019-05-13T04:29:38.858Z,57.10
2019-05-13T04:32:06.419Z,57.20
2019-05-13T04:34:34.253Z,57.30
2019-05-13T04:37:02.390Z,57.80
2019-05-13T04:39:41.673Z,57.40
2019-05-13T04:42:02.034Z,57.50
2019-05-13T04:44:28.499Z,57.60
2019-05-13T04:46:56.449Z,57.60
2019-05-13T04:49:24.123Z,57.70
2019-05-13T04:51:52.473Z,57.70
2019-05-13T04:54:22.533Z,57.70
2019-05-13T04:56:52.241Z,57.60
2019-05-13T04:59:18.530Z,57.60
2019-05-13T05:02:36.777Z,57.60
2019-05-13T05:05:04.691Z,57.50
2019-05-13T05:07:52.563Z,57.50
2019-05-13T05:11:03.121Z,57.60
2019-05-13T05:13:58.967Z,59.70
2019-05-13T05:17:42.963Z,57.70
2019-05-13T05:20:23.218Z,57.70
2019-05-13T05:23:39.040Z,57.80
2019-05-13T05:26:45.294Z,57.90
2019-05-13T05:29:33.918Z,57.90
2019-05-13T05:32:21.544Z,57.80
2019-05-13T05:35:14.692Z,58.00
2019-05-13T05:38:12.596Z,58.00
2019-05-13T05:40:42.587Z,58.00
2019-05-13T05:43:11.678Z,58.00
2019-05-13T05:45:41.166Z,58.00
2019-05-13T05:48:08.344Z,58.10
2019-05-13T05:50:42.375Z,58.10
2019-05-13T05:53:13.886Z,58.20
2019-05-13T05:55:42.274Z,58.00
2019-05-13T05:58:12.746Z,58.00
2019-05-13T06:00:41.543Z,57.90
2019-05-13T06:03:09.167Z,57.80
2019-05-13T06:05:36.808Z,57.80
2019-05-13T06:08:04.539Z,57.60
2019-05-13T06:10:45.804Z,58.10
2019-05-13T06:13:02.876Z,57.50
2019-05-13T06:15:31.484Z,57.60
2019-05-13T06:17:59.021Z,57.50
2019-05-13T06:20:26.595Z,57.30
2019-05-13T06:22:53.948Z,57.20
2019-05-13T06:25:23.300Z,56.90
2019-05-13T06:27:51.269Z,56.70
2019-05-13T06:30:21.509Z,56.60
2019-05-13T06:32:48.465Z,56.70
2019-05-13T06:35:15.875Z,56.60
2019-05-13T06:37:43.404Z,56.40
2019-05-13T06:40:12.383Z,55.90
2019-05-13T06:42:41.699Z,55.80
2019-05-13T06:45:12.311Z,55.90
2019-05-13T06:47:41.297Z,55.60
2019-05-13T06:50:11.625Z,55.50
2019-05-13T06:52:38.719Z,57.10
2019-05-13T06:55:06.161Z,55.50
2019-05-13T06:57:33.747Z,55.50
2019-05-13T07:00:01.823Z,55.20
2019-05-13T07:02:31.858Z,54.90
2019-05-13T07:04:58.909Z,54.70
2019-05-13T07:07:26.365Z,54.50
2019-05-13T07:09:53.717Z,54.40
2019-05-13T07:12:21.943Z,54.50
2019-05-13T07:14:51.845Z,55.30
2019-05-13T07:17:22.539Z,54.70
2019-05-13T07:19:51.688Z,54.70
2019-05-13T07:22:22.694Z,54.50
2019-05-13T07:24:48.695Z,54.30
2019-05-13T07:27:16.144Z,54.20
2019-05-13T07:29:43.557Z,54.20
2019-05-13T07:32:12.010Z,54.00
2019-05-13T07:34:43.489Z,53.80
2019-05-13T07:37:11.175Z,54.00
2019-05-13T07:39:38.257Z,53.80
2019-05-13T07:42:06.329Z,53.90
2019-05-13T07:44:36.589Z,53.90
2019-05-13T07:47:04.074Z,53.80
2019-05-13T07:49:33.597Z,53.40
2019-05-13T07:52:01.835Z,53.20
2019-05-13T07:54:29.582Z,53.10
2019-05-13T07:56:57.005Z,53.10
2019-05-13T07:59:24.429Z,53.10
2019-05-13T08:01:52.328Z,53.10
2019-05-13T08:04:23.681Z,52.30
2019-05-13T08:06:49.087Z,52.70
2019-05-13T08:09:16.886Z,52.60
2019-05-13T08:12:00.231Z,52.20
2019-05-13T08:14:13.641Z,52.10
2019-05-13T08:16:42.739Z,51.80
2019-05-13T08:19:12.316Z,51.60
2019-05-13T08:21:41.704Z,51.50
2019-05-13T08:24:11.719Z,51.10
2019-05-13T08:26:44.962Z,50.60
2019-05-13T08:29:08.048Z,50.20
2019-05-13T08:31:35.496Z,48.50
2019-05-13T08:34:02.829Z,49.50
2019-05-13T08:36:32.539Z,49.50
2019-05-13T08:41:21.140Z,49.20
2019-05-13T08:43:48.419Z,49.70
2019-05-13T08:46:15.799Z,49.80
2019-05-13T08:48:43.167Z,50.10
2019-05-13T08:51:11.629Z,50.30
2019-05-13T08:53:39.346Z,50.70
2019-05-13T08:56:06.698Z,50.80
2019-05-13T08:58:34.283Z,50.40
2019-05-13T09:01:02.322Z,50.10
2019-05-13T09:03:32.582Z,50.00
2019-05-13T09:06:02.529Z,50.50
2019-05-13T09:08:31.834Z,50.00
2019-05-13T09:11:01.388Z,50.80
2019-05-13T09:13:28.240Z,51.10
2019-05-13T09:15:55.775Z,50.70
2019-05-13T09:18:23.106Z,49.70
2019-05-13T09:20:52.055Z,50.50
2019-05-13T09:23:22.175Z,49.60
2019-05-13T09:25:49.147Z,49.00
2019-05-13T09:28:16.606Z,47.80
2019-05-13T09:30:44.041Z,47.40
2019-05-13T09:33:11.627Z,47.50
2019-05-13T09:35:39.219Z,45.60
2019-05-13T09:38:06.586Z,43.60
2019-05-13T09:40:34.039Z,41.50
2019-05-13T09:43:02.562Z,40.00
2019-05-13T09:45:32.097Z,38.80
2019-05-13T09:48:01.461Z,38.40
2019-05-13T09:50:33.197Z,37.60
2019-05-13T09:52:57.811Z,36.90
2019-05-13T09:55:29.221Z,36.60
2019-05-13T09:57:54.443Z,36.90
2019-05-13T10:00:22.010Z,38.00
2019-05-13T10:02:51.407Z,38.50
2019-05-13T10:05:18.635Z,37.90
2019-05-13T10:07:46.203Z,38.80
2019-05-13T10:10:15.618Z,39.50
2019-05-13T10:12:42.963Z,39.50
2019-05-13T10:15:12.551Z,39.30
2019-05-13T10:17:42.766Z,38.70
2019-05-13T10:20:12.092Z,38.60
2019-05-13T10:22:41.706Z,38.40
2019-05-13T10:25:12.287Z,38.20
2019-05-13T10:27:41.901Z,38.00
2019-05-13T10:30:11.425Z,37.70
2019-05-13T10:32:42.282Z,38.40
2019-05-13T10:35:08.579Z,37.90
2019-05-13T10:37:36.215Z,38.10
2019-05-13T10:40:05.099Z,38.00
2019-05-13T10:42:32.822Z,38.40
2019-05-13T10:45:02.490Z,38.60
2019-05-13T10:47:29.391Z,39.00
2019-05-13T10:49:56.769Z,39.10
2019-05-13T10:52:24.702Z,39.30
2019-05-13T10:55:01.667Z,38.90
2019-05-13T10:57:28.158Z,38.70
2019-05-13T10:59:59.683Z,38.40
2019-05-13T11:02:25.213Z,38.70
2019-05-13T11:04:52.783Z,39.10
2019-05-13T11:07:22.468Z,39.30
2019-05-13T11:09:52.470Z,39.10
2019-05-13T11:12:18.919Z,39.10
2019-05-13T11:14:51.555Z,39.10
2019-05-13T11:17:16.334Z,38.90
2019-05-13T11:19:43.813Z,39.10
2019-05-13T11:22:12.293Z,39.40
2019-05-13T11:24:42.883Z,39.60
2019-05-13T11:27:11.795Z,40.10
2019-05-13T11:29:38.457Z,40.00
2019-05-13T11:32:05.959Z,40.30
2019-05-13T11:34:33.383Z,40.00
2019-05-13T11:37:03.761Z,40.10
2019-05-13T11:39:32.552Z,39.90
2019-05-13T11:42:02.043Z,39.90
2019-05-13T11:44:28.569Z,39.40
2019-05-13T11:46:56.297Z,39.20
2019-05-13T11:49:23.850Z,38.80
2019-05-13T11:51:52.063Z,38.30
2019-05-13T11:54:22.201Z,37.90
2019-05-13T11:56:52.140Z,37.80
2019-05-13T11:59:18.205Z,37.50
2019-05-13T12:01:45.659Z,37.10
2019-05-13T12:04:13.086Z,37.00
2019-05-13T12:06:48.036Z,36.70
2019-05-13T12:09:13.048Z,36.50
2019-05-13T12:11:39.349Z,36.30
2019-05-13T12:14:06.784Z,37.10
2019-05-13T12:16:35.162Z,36.30
2019-05-13T12:19:03.671Z,35.80
2019-05-13T12:21:31.422Z,36.10
2019-05-13T12:24:07.085Z,36.40
2019-05-13T12:26:28.328Z,36.40
2019-05-13T12:28:56.096Z,36.40
2019-05-13T12:31:23.448Z,36.00
2019-05-13T12:33:52.329Z,36.20
2019-05-13T12:36:23.632Z,36.80
2019-05-13T12:38:52.909Z,35.70
2019-05-13T12:41:18.856Z,35.50
2019-05-13T12:43:46.328Z,35.40
2019-05-13T12:46:13.730Z,35.50
2019-05-13T12:48:41.185Z,35.40
2019-05-13T12:51:08.655Z,35.10
2019-05-13T12:53:36.041Z,35.00
2019-05-13T12:56:03.855Z,35.00
2019-05-13T12:58:33.968Z,35.20
2019-05-13T13:01:01.591Z,35.40
2019-05-13T13:03:29.087Z,35.30
2019-05-13T13:06:21.224Z,35.60
2019-05-13T13:08:43.065Z,35.70
2019-05-13T13:10:58.637Z,35.70
2019-05-13T13:13:52.461Z,35.20
2019-05-13T13:15:55.555Z,35.50
2019-05-13T13:18:31.028Z,35.40
2019-05-13T13:21:05.194Z,35.80
2019-05-13T13:23:27.819Z,35.90
2019-05-13T13:25:57.171Z,36.00
2019-05-13T13:28:24.911Z,36.10
2019-05-13T13:30:53.073Z,36.10
2019-05-13T13:33:20.813Z,35.70
2019-05-13T13:35:58.616Z,35.70
2019-05-13T13:38:17.485Z,35.70
2019-05-13T13:40:53.820Z,35.70
2019-05-13T13:43:25.039Z,35.50
2019-05-13T13:46:07.671Z,35.60
2019-05-13T13:48:24.906Z,35.60
2019-05-13T13:50:48.559Z,35.60
2019-05-13T13:53:16.137Z,35.60
2019-05-13T13:55:44.631Z,35.80
2019-05-13T13:58:14.161Z,35.80
2019-05-13T14:00:59.700Z,35.50
2019-05-13T14:03:12.389Z,35.60
2019-05-13T14:05:42.886Z,35.30
2019-05-13T14:08:09.357Z,35.10
2019-05-13T14:10:36.806Z,35.10
2019-05-13T14:13:04.955Z,35.20
2019-05-13T14:15:34.414Z,35.30
2019-05-13T14:18:01.734Z,35.20
2019-05-13T14:20:29.199Z,35.10
2019-05-13T14:22:57.968Z,35.30
2019-05-13T14:25:25.734Z,35.30
2019-05-13T14:27:53.170Z,35.20
2019-05-13T14:30:21.751Z,35.10
2019-05-13T14:32:51.977Z,34.60
2019-05-13T14:35:18.762Z,34.60
2019-05-13T14:37:46.337Z,34.60
2019-05-13T14:40:14.179Z,34.50
2019-05-13T14:42:42.658Z,34.30
2019-05-13T14:45:12.205Z,34.00
2019-05-13T14:47:39.935Z,33.70
2019-05-13T14:50:07.558Z,33.90
2019-05-13T14:52:34.981Z,33.40
2019-05-13T14:55:02.425Z,33.00
2019-05-13T14:57:32.091Z,32.90
2019-05-13T15:00:02.170Z,33.00
2019-05-13T15:02:29.537Z,32.40
2019-05-13T15:04:58.369Z,34.50
2019-05-13T15:07:34.531Z,32.90
2019-05-13T15:10:10.888Z,33.00
2019-05-13T15:12:38.431Z,32.80
2019-05-13T15:15:06.248Z,32.50
2019-05-13T15:17:34.849Z,32.40
2019-05-13T15:20:02.400Z,32.40
2019-05-13T15:22:31.859Z,32.20
2019-05-13T15:24:59.226Z,31.80
2019-05-13T15:27:26.645Z,31.70
2019-05-13T15:29:54.036Z,31.50
2019-05-13T15:32:21.898Z,32.10
2019-05-13T15:34:51.723Z,32.30
2019-05-13T15:37:21.270Z,32.20
2019-05-13T15:39:48.133Z,32.10
2019-05-13T15:42:15.521Z,32.20
2019-05-13T15:44:42.984Z,32.40
2019-05-13T15:47:29.140Z,32.40
2019-05-13T15:49:39.819Z,32.40
2019-05-13T15:52:07.268Z,32.30
2019-05-13T15:54:34.713Z,30.90
2019-05-13T15:57:02.488Z,32.40
2019-05-13T15:59:30.054Z,32.20
2019-05-13T16:01:57.564Z,32.20
2019-05-13T16:04:25.046Z,32.90
2019-05-13T16:06:52.538Z,32.70
2019-05-13T16:09:20.425Z,32.10
2019-05-13T16:11:47.832Z,32.00
2019-05-13T16:14:15.331Z,31.90
2019-05-13T16:16:42.783Z,31.50
2019-05-13T16:19:10.107Z,30.90
2019-05-13T16:21:37.499Z,30.60
2019-05-13T16:24:05.126Z,30.50
2019-05-13T16:26:32.866Z,30.40
2019-05-13T16:29:02.069Z,30.30
2019-05-13T16:31:31.698Z,30.10
2019-05-13T16:34:01.028Z,30.10
2019-05-13T16:36:28.342Z,30.20
2019-05-13T16:38:55.900Z,30.40
2019-05-13T16:41:23.397Z,30.20
2019-05-13T16:43:50.921Z,30.20
2019-05-13T16:46:18.335Z,30.30
2019-05-13T16:48:45.796Z,30.30
2019-05-13T16:51:13.138Z,30.40
2019-05-13T16:53:43.019Z,30.60
2019-05-13T16:56:25.368Z,30.60
2019-05-13T16:58:41.760Z,30.70
2019-05-13T17:01:11.785Z,31.50
2019-05-13T17:03:41.517Z,30.90
2019-05-13T17:06:08.854Z,30.70
2019-05-13T17:08:36.195Z,30.80
2019-05-13T17:11:03.817Z,31.00
2019-05-13T17:13:31.571Z,31.10
2019-05-13T17:16:01.398Z,31.30
2019-05-13T17:18:28.702Z,31.20
2019-05-13T17:20:57.329Z,31.10
2019-05-13T17:23:25.110Z,31.50
2019-05-13T17:25:52.546Z,31.00
2019-05-13T17:28:21.939Z,31.00
2019-05-13T17:30:51.765Z,31.00
2019-05-13T17:33:18.547Z,30.80
2019-05-13T17:35:46.003Z,30.80
2019-05-13T17:38:13.476Z,30.70
2019-05-13T17:40:41.978Z,30.80
2019-05-13T17:43:11.789Z,30.80
2019-05-13T17:45:39.005Z,30.70
2019-05-13T17:48:06.500Z,30.60
2019-05-13T17:50:33.981Z,31.20
2019-05-13T17:53:02.177Z,30.40
2019-05-13T17:55:32.308Z,30.40
2019-05-13T17:58:01.408Z,30.60
2019-05-13T18:00:29.021Z,30.70
2019-05-13T18:02:56.338Z,30.40
2019-05-13T18:05:23.791Z,30.40
2019-05-13T18:07:51.399Z,30.40
2019-05-13T18:10:18.866Z,30.50
2019-05-13T18:12:46.360Z,30.50
2019-05-13T18:15:14.433Z,30.80
2019-05-13T18:17:42.355Z,31.10
2019-05-13T18:20:10.267Z,31.20
2019-05-13T18:22:38.001Z,31.30
2019-05-13T18:25:06.051Z,31.30
2019-05-13T18:27:35.500Z,31.70
2019-05-13T18:30:03.747Z,32.10
2019-05-13T18:32:36.250Z,32.30
2019-05-13T18:35:04.050Z,32.30
2019-05-13T18:37:33.843Z,31.00
2019-05-13T18:40:02.539Z,32.10
2019-05-13T18:42:31.783Z,34.40
2019-05-13T18:45:02.202Z,33.20
2019-05-13T18:47:31.599Z,32.30
2019-05-13T18:50:02.304Z,32.30
2019-05-13T18:52:36.789Z,32.50
2019-05-13T18:55:08.918Z,32.70
2019-05-13T18:58:41.669Z,33.50
2019-05-13T19:04:53.222Z,33.20
2019-05-13T19:10:41.380Z,32.90
2019-05-13T19:11:22.530Z,32.80
2019-05-13T19:13:08.784Z,33.90
2019-05-13T19:15:37.780Z,32.80
2019-05-13T19:18:27.478Z,32.90
2019-05-13T19:20:54.878Z,33.00
2019-05-13T19:23:22.407Z,33.00
2019-05-13T19:25:51.369Z,33.00
2019-05-13T19:28:18.986Z,33.30
2019-05-13T19:30:46.436Z,33.20
2019-05-13T19:33:13.831Z,33.30
2019-05-13T19:35:42.556Z,33.50
2019-05-13T19:38:15.244Z,33.60
2019-05-13T19:40:48.524Z,33.70
2019-05-13T19:43:16.109Z,33.80
2019-05-13T19:45:43.967Z,33.90
2019-05-13T19:51:34.662Z,32.70
2019-05-13T19:54:04.946Z,34.00
2019-05-13T19:56:35.889Z,34.20
2019-05-13T19:59:03.340Z,33.90
2019-05-13T20:01:32.185Z,34.10
2019-05-13T20:04:02.148Z,34.40
2019-05-13T20:06:29.085Z,34.50
2019-05-13T20:08:57.701Z,34.70
2019-05-13T20:11:25.055Z,35.00
2019-05-13T20:13:53.755Z,35.00
2019-05-13T20:16:22.209Z,35.30
2019-05-13T20:18:53.465Z,35.50
2019-05-13T20:21:20.978Z,35.70
2019-05-13T20:23:48.454Z,35.90
2019-05-13T20:26:15.826Z,36.20
2019-05-13T20:28:43.209Z,36.30
2019-05-13T20:31:11.164Z,36.50
2019-05-13T20:33:40.154Z,36.70
2019-05-13T20:36:07.956Z,36.80
2019-05-13T20:38:35.446Z,37.00
2019-05-13T20:41:02.768Z,37.20
2019-05-13T20:43:32.674Z,37.50
2019-05-13T20:46:01.747Z,37.70
2019-05-13T20:48:31.516Z,37.80
2019-05-13T20:50:58.544Z,37.20
2019-05-13T20:53:25.958Z,38.70
2019-05-13T20:55:53.522Z,38.40
2019-05-13T20:58:21.431Z,38.50
2019-05-13T21:00:51.384Z,38.60
2019-05-13T21:03:18.394Z,38.80
2019-05-13T21:05:45.882Z,38.80
2019-05-13T21:08:13.338Z,38.30
2019-05-13T21:10:42.197Z,39.00
2019-05-13T21:13:12.083Z,39.10
2019-05-13T21:15:39.008Z,39.20
2019-05-13T21:18:06.356Z,39.30
2019-05-13T21:20:33.829Z,39.30
2019-05-13T21:23:02.262Z,39.20
2019-05-13T21:25:31.090Z,38.90
2019-05-13T21:27:58.896Z,38.60
2019-05-13T21:30:26.341Z,38.60
2019-05-13T21:32:53.854Z,39.20
2019-05-13T21:35:21.387Z,36.90
2019-05-13T21:37:51.048Z,38.30
2019-05-13T21:40:18.698Z,38.30
2019-05-13T21:42:46.152Z,38.00
2019-05-13T21:45:13.619Z,37.70
2019-05-13T21:47:41.004Z,37.50
2019-05-13T21:50:11.341Z,37.40
2019-05-13T21:52:38.324Z,36.40
2019-05-13T21:55:06.553Z,37.20
2019-05-13T21:57:33.982Z,37.00
2019-05-13T22:00:02.072Z,37.00
2019-05-13T22:02:31.671Z,36.40
2019-05-13T22:05:00.952Z,36.20
2019-05-13T22:07:28.260Z,36.00
2019-05-13T22:09:55.745Z,36.00
2019-05-13T22:12:23.069Z,36.10
2019-05-13T22:14:51.738Z,36.00
2019-05-13T22:17:22.215Z,36.00
2019-05-13T22:19:51.217Z,36.20
2019-05-13T22:22:18.896Z,36.10
2019-05-13T22:24:46.255Z,36.10
2019-05-13T22:27:13.618Z,36.20
2019-05-13T22:29:41.548Z,36.80
2019-05-13T22:32:11.149Z,36.00
2019-05-13T22:34:38.253Z,36.00
2019-05-13T22:37:05.713Z,36.00
2019-05-13T22:39:34.843Z,36.60
2019-05-13T22:42:02.395Z,36.10
2019-05-13T22:44:32.250Z,36.10
2019-05-13T22:46:59.121Z,36.10
2019-05-13T22:49:26.513Z,36.20
2019-05-13T22:51:53.932Z,36.10
2019-05-13T22:54:21.316Z,36.20
2019-05-13T22:56:48.769Z,36.10
2019-05-13T22:59:16.150Z,36.20
2019-05-13T23:01:43.567Z,36.40
2019-05-13T23:04:11.424Z,36.30
2019-05-13T23:06:39.227Z,36.30
2019-05-13T23:09:06.641Z,36.30
2019-05-13T23:11:34.038Z,36.20
2019-05-13T23:14:09.737Z,36.40
2019-05-13T23:16:31.618Z,36.50
2019-05-13T23:18:59.477Z,36.50
2019-05-13T23:21:26.924Z,36.50
2019-05-13T23:23:54.280Z,36.60
2019-05-13T23:26:21.667Z,36.50
2019-05-13T23:28:49.079Z,36.60
2019-05-13T23:31:16.544Z,36.70
2019-05-13T23:33:44.023Z,36.70
2019-05-13T23:36:11.955Z,36.80
2019-05-13T23:41:15.241Z,36.30
2019-05-13T23:43:42.626Z,37.00
2019-05-13T23:46:11.736Z,37.00
2019-05-13T23:48:41.324Z,37.00
2019-05-13T23:51:08.812Z,37.10
2019-05-13T23:53:36.337Z,37.10
2019-05-13T23:56:03.658Z,37.10
2019-05-13T23:58:32.136Z,37.20
